sensor_id;sensor_type;location;lat;lon;timestamp;P1;durP1;ratioP1;P2;durP2;ratioP2
28605;SDS011;46498;49.968;7.754;2023-12-04T00:04:59;52.08;;;21.30;;
28605;SDS011;46498;49.968;7.754;2023-12-04T00:10:00;51.97;;;21.23;;
28605;SDS011;46498;49.968;7.754;2023-12-04T00:15:01;52.22;;;20.62;;
28605;SDS011;46498;49.968;7.754;2023-12-04T00:20:02;56.42;;;21.35;;
28605;SDS011;46498;49.968;7.754;2023-12-04T00:25:04;52.55;;;21.73;;
28605;SDS011;46498;49.968;7.754;2023-12-04T00:30:07;55.75;;;21.87;;
28605;SDS011;46498;49.968;7.754;2023-12-04T00:35:08;51.97;;;21.60;;
28605;SDS011;46498;49.968;7.754;2023-12-04T00:40:09;52.47;;;21.20;;
28605;SDS011;46498;49.968;7.754;2023-12-04T00:45:11;56.15;;;22.90;;
28605;SDS011;46498;49.968;7.754;2023-12-04T00:50:11;59.67;;;23.42;;
28605;SDS011;46498;49.968;7.754;2023-12-04T00:55:13;57.17;;;21.62;;
28605;SDS011;46498;49.968;7.754;2023-12-04T01:00:14;54.60;;;21.42;;
28605;SDS011;46498;49.968;7.754;2023-12-04T01:05:15;50.63;;;22.42;;
28605;SDS011;46498;49.968;7.754;2023-12-04T01:10:17;54.80;;;21.33;;
28605;SDS011;46498;49.968;7.754;2023-12-04T01:15:18;53.92;;;22.13;;
28605;SDS011;46498;49.968;7.754;2023-12-04T01:20:18;55.20;;;23.17;;
28605;SDS011;46498;49.968;7.754;2023-12-04T01:25:19;58.45;;;23.27;;
28605;SDS011;46498;49.968;7.754;2023-12-04T01:30:21;54.40;;;22.92;;
28605;SDS011;46498;49.968;7.754;2023-12-04T01:35:21;54.58;;;22.73;;
28605;SDS011;46498;49.968;7.754;2023-12-04T01:40:22;52.25;;;21.75;;
28605;SDS011;46498;49.968;7.754;2023-12-04T01:45:23;51.17;;;22.02;;
28605;SDS011;46498;49.968;7.754;2023-12-04T01:50:24;55.88;;;23.95;;
28605;SDS011;46498;49.968;7.754;2023-12-04T01:55:25;56.15;;;22.10;;
28605;SDS011;46498;49.968;7.754;2023-12-04T02:00:27;55.12;;;22.52;;
28605;SDS011;46498;49.968;7.754;2023-12-04T02:05:28;55.00;;;22.62;;
28605;SDS011;46498;49.968;7.754;2023-12-04T02:10:29;58.40;;;23.85;;
28605;SDS011;46498;49.968;7.754;2023-12-04T02:15:30;56.03;;;22.15;;
28605;SDS011;46498;49.968;7.754;2023-12-04T02:20:32;57.70;;;24.23;;
28605;SDS011;46498;49.968;7.754;2023-12-04T02:25:35;56.22;;;23.02;;
28605;SDS011;46498;49.968;7.754;2023-12-04T02:30:38;54.75;;;22.52;;
28605;SDS011;46498;49.968;7.754;2023-12-04T02:35:43;56.53;;;22.15;;
28605;SDS011;46498;49.968;7.754;2023-12-04T02:40:45;53.93;;;22.30;;
28605;SDS011;46498;49.968;7.754;2023-12-04T02:45:46;54.20;;;22.42;;
28605;SDS011;46498;49.968;7.754;2023-12-04T02:50:47;55.15;;;22.55;;
28605;SDS011;46498;49.968;7.754;2023-12-04T02:55:47;55.25;;;22.35;;
28605;SDS011;46498;49.968;7.754;2023-12-04T03:00:48;57.90;;;22.40;;
28605;SDS011;46498;49.968;7.754;2023-12-04T03:05:49;55.30;;;21.83;;
28605;SDS011;46498;49.968;7.754;2023-12-04T03:10:50;54.30;;;22.27;;
28605;SDS011;46498;49.968;7.754;2023-12-04T03:15:51;56.67;;;23.60;;
28605;SDS011;46498;49.968;7.754;2023-12-04T03:20:52;54.67;;;22.25;;
28605;SDS011;46498;49.968;7.754;2023-12-04T03:25:53;50.63;;;22.48;;
28605;SDS011;46498;49.968;7.754;2023-12-04T03:30:54;54.28;;;22.05;;
28605;SDS011;46498;49.968;7.754;2023-12-04T03:35:55;54.97;;;22.27;;
28605;SDS011;46498;49.968;7.754;2023-12-04T03:40:56;57.50;;;23.65;;
28605;SDS011;46498;49.968;7.754;2023-12-04T03:45:57;53.58;;;21.45;;
28605;SDS011;46498;49.968;7.754;2023-12-04T03:50:58;54.97;;;23.17;;
28605;SDS011;46498;49.968;7.754;2023-12-04T03:56:00;61.23;;;24.70;;
28605;SDS011;46498;49.968;7.754;2023-12-04T04:01:01;56.45;;;22.17;;
28605;SDS011;46498;49.968;7.754;2023-12-04T04:06:02;56.03;;;21.87;;
28605;SDS011;46498;49.968;7.754;2023-12-04T04:11:03;51.08;;;21.42;;
28605;SDS011;46498;49.968;7.754;2023-12-04T04:16:05;53.33;;;20.62;;
28605;SDS011;46498;49.968;7.754;2023-12-04T04:21:06;52.15;;;21.05;;
28605;SDS011;46498;49.968;7.754;2023-12-04T04:26:07;58.28;;;21.27;;
28605;SDS011;46498;49.968;7.754;2023-12-04T04:31:08;52.05;;;20.77;;
28605;SDS011;46498;49.968;7.754;2023-12-04T04:36:09;50.60;;;21.37;;
28605;SDS011;46498;49.968;7.754;2023-12-04T04:41:14;50.72;;;21.58;;
28605;SDS011;46498;49.968;7.754;2023-12-04T04:46:18;56.40;;;21.92;;
28605;SDS011;46498;49.968;7.754;2023-12-04T04:51:19;52.58;;;21.60;;
28605;SDS011;46498;49.968;7.754;2023-12-04T04:56:20;57.80;;;21.52;;
28605;SDS011;46498;49.968;7.754;2023-12-04T05:01:20;64.70;;;23.17;;
28605;SDS011;46498;49.968;7.754;2023-12-04T05:06:21;56.83;;;23.20;;
28605;SDS011;46498;49.968;7.754;2023-12-04T05:11:23;53.00;;;21.20;;
28605;SDS011;46498;49.968;7.754;2023-12-04T05:16:24;55.28;;;21.87;;
28605;SDS011;46498;49.968;7.754;2023-12-04T05:21:25;53.30;;;21.10;;
28605;SDS011;46498;49.968;7.754;2023-12-04T05:26:26;52.38;;;21.77;;
28605;SDS011;46498;49.968;7.754;2023-12-04T05:31:26;55.08;;;21.08;;
28605;SDS011;46498;49.968;7.754;2023-12-04T05:36:27;61.90;;;22.42;;
28605;SDS011;46498;49.968;7.754;2023-12-04T05:41:28;55.33;;;21.23;;
28605;SDS011;46498;49.968;7.754;2023-12-04T05:46:29;55.17;;;21.98;;
28605;SDS011;46498;49.968;7.754;2023-12-04T05:51:30;71.28;;;27.52;;
28605;SDS011;46498;49.968;7.754;2023-12-04T05:56:35;61.53;;;25.50;;
28605;SDS011;46498;49.968;7.754;2023-12-04T06:01:36;71.22;;;27.85;;
28605;SDS011;46498;49.968;7.754;2023-12-04T06:06:36;63.17;;;26.10;;
28605;SDS011;46498;49.968;7.754;2023-12-04T06:11:37;74.47;;;28.30;;
28605;SDS011;46498;49.968;7.754;2023-12-04T06:16:38;74.05;;;27.60;;
28605;SDS011;46498;49.968;7.754;2023-12-04T06:21:39;62.75;;;25.25;;
28605;SDS011;46498;49.968;7.754;2023-12-04T06:26:41;58.03;;;23.10;;
28605;SDS011;46498;49.968;7.754;2023-12-04T06:31:44;63.38;;;24.75;;
28605;SDS011;46498;49.968;7.754;2023-12-04T06:36:45;56.83;;;21.90;;
28605;SDS011;46498;49.968;7.754;2023-12-04T06:41:47;54.00;;;21.77;;
28605;SDS011;46498;49.968;7.754;2023-12-04T06:46:49;58.83;;;21.43;;
28605;SDS011;46498;49.968;7.754;2023-12-04T06:51:52;53.65;;;20.98;;
28605;SDS011;46498;49.968;7.754;2023-12-04T06:56:53;51.85;;;19.62;;
28605;SDS011;46498;49.968;7.754;2023-12-04T07:01:54;51.70;;;18.75;;
28605;SDS011;46498;49.968;7.754;2023-12-04T07:06:55;49.08;;;19.77;;
28605;SDS011;46498;49.968;7.754;2023-12-04T07:11:56;45.17;;;18.42;;
28605;SDS011;46498;49.968;7.754;2023-12-04T07:16:57;52.75;;;19.37;;
28605;SDS011;46498;49.968;7.754;2023-12-04T07:21:58;48.87;;;18.42;;
28605;SDS011;46498;49.968;7.754;2023-12-04T07:26:59;48.78;;;18.35;;
28605;SDS011;46498;49.968;7.754;2023-12-04T07:32:00;45.28;;;18.15;;
28605;SDS011;46498;49.968;7.754;2023-12-04T07:37:02;46.50;;;18.33;;
28605;SDS011;46498;49.968;7.754;2023-12-04T07:42:04;51.88;;;18.27;;
28605;SDS011;46498;49.968;7.754;2023-12-04T07:47:13;45.33;;;17.83;;
28605;SDS011;46498;49.968;7.754;2023-12-04T07:52:16;46.15;;;18.00;;
28605;SDS011;46498;49.968;7.754;2023-12-04T07:57:18;42.87;;;17.63;;
28605;SDS011;46498;49.968;7.754;2023-12-04T08:02:19;42.35;;;16.95;;
28605;SDS011;46498;49.968;7.754;2023-12-04T08:07:20;42.75;;;17.40;;
28605;SDS011;46498;49.968;7.754;2023-12-04T08:12:21;44.72;;;17.02;;
28605;SDS011;46498;49.968;7.754;2023-12-04T08:17:22;41.92;;;16.45;;
28605;SDS011;46498;49.968;7.754;2023-12-04T08:22:23;43.53;;;17.65;;
28605;SDS011;46498;49.968;7.754;2023-12-04T08:27:24;43.83;;;17.08;;
28605;SDS011;46498;49.968;7.754;2023-12-04T08:32:25;45.42;;;16.45;;
28605;SDS011;46498;49.968;7.754;2023-12-04T08:37:28;41.70;;;16.42;;
28605;SDS011;46498;49.968;7.754;2023-12-04T08:42:29;38.10;;;15.65;;
28605;SDS011;46498;49.968;7.754;2023-12-04T08:47:31;42.60;;;16.20;;
28605;SDS011;46498;49.968;7.754;2023-12-04T08:52:32;39.83;;;15.55;;
28605;SDS011;46498;49.968;7.754;2023-12-04T08:57:33;38.92;;;16.95;;
28605;SDS011;46498;49.968;7.754;2023-12-04T09:02:35;47.67;;;17.40;;
28605;SDS011;46498;49.968;7.754;2023-12-04T09:07:44;41.60;;;16.62;;
28605;SDS011;46498;49.968;7.754;2023-12-04T09:12:47;39.03;;;15.88;;
28605;SDS011;46498;49.968;7.754;2023-12-04T09:17:48;42.50;;;16.08;;
28605;SDS011;46498;49.968;7.754;2023-12-04T09:22:49;42.75;;;17.40;;
28605;SDS011;46498;49.968;7.754;2023-12-04T09:27:58;42.45;;;16.50;;
28605;SDS011;46498;49.968;7.754;2023-12-04T09:32:58;41.47;;;16.52;;
28605;SDS011;46498;49.968;7.754;2023-12-04T09:38:00;37.72;;;15.10;;
28605;SDS011;46498;49.968;7.754;2023-12-04T09:43:02;40.38;;;16.40;;
28605;SDS011;46498;49.968;7.754;2023-12-04T09:53:06;37.80;;;15.75;;
28605;SDS011;46498;49.968;7.754;2023-12-04T09:58:12;58.75;;;21.40;;
28605;SDS011;46498;49.968;7.754;2023-12-04T10:03:15;39.13;;;15.40;;
28605;SDS011;46498;49.968;7.754;2023-12-04T10:08:16;40.85;;;16.10;;
28605;SDS011;46498;49.968;7.754;2023-12-04T10:13:18;40.00;;;16.30;;
28605;SDS011;46498;49.968;7.754;2023-12-04T10:26:41;34.58;;;15.85;;
28605;SDS011;46498;49.968;7.754;2023-12-04T10:31:52;36.25;;;15.63;;
28605;SDS011;46498;49.968;7.754;2023-12-04T10:36:56;34.33;;;14.18;;
28605;SDS011;46498;49.968;7.754;2023-12-04T10:41:59;43.78;;;16.87;;
28605;SDS011;46498;49.968;7.754;2023-12-04T10:47:02;36.60;;;15.80;;
28605;SDS011;46498;49.968;7.754;2023-12-04T10:52:04;38.00;;;16.30;;
28605;SDS011;46498;49.968;7.754;2023-12-04T10:57:06;38.72;;;16.48;;
28605;SDS011;46498;49.968;7.754;2023-12-04T11:02:09;37.35;;;15.70;;
28605;SDS011;46498;49.968;7.754;2023-12-04T11:07:18;38.25;;;16.48;;
28605;SDS011;46498;49.968;7.754;2023-12-04T11:12:21;43.87;;;16.60;;
28605;SDS011;46498;49.968;7.754;2023-12-04T11:17:26;40.15;;;15.27;;
28605;SDS011;46498;49.968;7.754;2023-12-04T11:22:31;41.17;;;15.82;;
28605;SDS011;46498;49.968;7.754;2023-12-04T11:27:32;36.20;;;16.05;;
28605;SDS011;46498;49.968;7.754;2023-12-04T11:32:45;39.88;;;15.38;;
28605;SDS011;46498;49.968;7.754;2023-12-04T11:37:46;41.03;;;16.23;;
28605;SDS011;46498;49.968;7.754;2023-12-04T11:42:48;31.70;;;14.48;;
28605;SDS011;46498;49.968;7.754;2023-12-04T11:47:54;37.83;;;15.77;;
28605;SDS011;46498;49.968;7.754;2023-12-04T11:52:57;35.88;;;14.73;;
28605;SDS011;46498;49.968;7.754;2023-12-04T11:57:58;37.95;;;15.65;;
28605;SDS011;46498;49.968;7.754;2023-12-04T12:03:03;35.25;;;15.30;;
28605;SDS011;46498;49.968;7.754;2023-12-04T12:08:23;31.27;;;14.75;;
28605;SDS011;46498;49.968;7.754;2023-12-04T12:13:25;34.03;;;15.68;;
28605;SDS011;46498;49.968;7.754;2023-12-04T12:18:27;37.07;;;15.70;;
28605;SDS011;46498;49.968;7.754;2023-12-04T12:23:28;36.83;;;15.60;;
28605;SDS011;46498;49.968;7.754;2023-12-04T12:28:29;31.33;;;14.35;;
28605;SDS011;46498;49.968;7.754;2023-12-04T12:33:31;30.73;;;14.27;;
28605;SDS011;46498;49.968;7.754;2023-12-04T12:38:32;33.47;;;15.02;;
28605;SDS011;46498;49.968;7.754;2023-12-04T12:43:37;31.37;;;14.25;;
28605;SDS011;46498;49.968;7.754;2023-12-04T12:48:38;33.05;;;14.23;;
28605;SDS011;46498;49.968;7.754;2023-12-04T12:53:39;31.50;;;14.52;;
28605;SDS011;46498;49.968;7.754;2023-12-04T12:58:41;31.87;;;14.73;;
28605;SDS011;46498;49.968;7.754;2023-12-04T13:03:45;36.17;;;15.77;;
28605;SDS011;46498;49.968;7.754;2023-12-04T13:08:47;39.42;;;17.52;;
28605;SDS011;46498;49.968;7.754;2023-12-04T13:13:48;35.10;;;16.23;;
28605;SDS011;46498;49.968;7.754;2023-12-04T13:18:48;37.85;;;16.65;;
28605;SDS011;46498;49.968;7.754;2023-12-04T13:23:49;42.40;;;17.87;;
28605;SDS011;46498;49.968;7.754;2023-12-04T13:28:50;37.80;;;16.87;;
28605;SDS011;46498;49.968;7.754;2023-12-04T13:33:51;42.55;;;17.23;;
28605;SDS011;46498;49.968;7.754;2023-12-04T13:38:52;39.67;;;16.65;;
28605;SDS011;46498;49.968;7.754;2023-12-04T13:43:54;35.72;;;16.52;;
28605;SDS011;46498;49.968;7.754;2023-12-04T13:48:55;36.75;;;16.98;;
28605;SDS011;46498;49.968;7.754;2023-12-04T13:53:57;40.13;;;17.67;;
28605;SDS011;46498;49.968;7.754;2023-12-04T13:59:09;36.17;;;17.17;;
28605;SDS011;46498;49.968;7.754;2023-12-04T14:04:19;39.42;;;17.15;;
28605;SDS011;46498;49.968;7.754;2023-12-04T14:09:21;38.40;;;16.67;;
28605;SDS011;46498;49.968;7.754;2023-12-04T14:14:22;39.25;;;17.73;;
28605;SDS011;46498;49.968;7.754;2023-12-04T14:19:23;42.10;;;18.62;;
28605;SDS011;46498;49.968;7.754;2023-12-04T14:24:24;43.30;;;18.48;;
28605;SDS011;46498;49.968;7.754;2023-12-04T14:29:25;38.65;;;17.83;;
28605;SDS011;46498;49.968;7.754;2023-12-04T14:34:26;43.05;;;18.87;;
28605;SDS011;46498;49.968;7.754;2023-12-04T14:39:29;40.25;;;18.60;;
28605;SDS011;46498;49.968;7.754;2023-12-04T14:44:30;43.05;;;18.55;;
28605;SDS011;46498;49.968;7.754;2023-12-04T14:49:31;41.65;;;19.00;;
28605;SDS011;46498;49.968;7.754;2023-12-04T14:54:31;42.95;;;19.50;;
28605;SDS011;46498;49.968;7.754;2023-12-04T14:59:52;38.60;;;18.15;;
28605;SDS011;46498;49.968;7.754;2023-12-04T15:07:52;39.05;;;17.73;;
28605;SDS011;46498;49.968;7.754;2023-12-04T15:19:41;33.10;;;15.30;;
28605;SDS011;46498;49.968;7.754;2023-12-04T15:25:02;34.67;;;16.05;;
28605;SDS011;46498;49.968;7.754;2023-12-04T15:30:04;30.87;;;15.17;;
28605;SDS011;46498;49.968;7.754;2023-12-04T15:35:08;33.00;;;15.43;;
28605;SDS011;46498;49.968;7.754;2023-12-04T15:40:15;31.95;;;15.43;;
28605;SDS011;46498;49.968;7.754;2023-12-04T15:45:16;37.03;;;16.42;;
28605;SDS011;46498;49.968;7.754;2023-12-04T15:50:17;38.10;;;17.02;;
28605;SDS011;46498;49.968;7.754;2023-12-04T15:55:18;40.05;;;18.20;;
28605;SDS011;46498;49.968;7.754;2023-12-04T16:00:21;36.55;;;17.00;;
28605;SDS011;46498;49.968;7.754;2023-12-04T16:05:22;40.08;;;17.00;;
28605;SDS011;46498;49.968;7.754;2023-12-04T16:10:24;42.45;;;18.15;;
28605;SDS011;46498;49.968;7.754;2023-12-04T16:15:25;37.00;;;17.20;;
28605;SDS011;46498;49.968;7.754;2023-12-04T16:25:29;40.22;;;17.25;;
28605;SDS011;46498;49.968;7.754;2023-12-04T16:30:30;38.75;;;17.62;;
28605;SDS011;46498;49.968;7.754;2023-12-04T16:35:31;39.00;;;18.10;;
28605;SDS011;46498;49.968;7.754;2023-12-04T16:40:32;37.47;;;17.45;;
28605;SDS011;46498;49.968;7.754;2023-12-04T16:45:33;39.55;;;18.85;;
28605;SDS011;46498;49.968;7.754;2023-12-04T16:50:34;44.50;;;19.52;;
28605;SDS011;46498;49.968;7.754;2023-12-04T16:55:37;44.40;;;20.17;;
28605;SDS011;46498;49.968;7.754;2023-12-04T17:00:37;44.40;;;19.95;;
28605;SDS011;46498;49.968;7.754;2023-12-04T17:05:38;52.03;;;21.45;;
28605;SDS011;46498;49.968;7.754;2023-12-04T17:10:40;55.75;;;22.62;;
28605;SDS011;46498;49.968;7.754;2023-12-04T17:15:40;57.28;;;22.98;;
28605;SDS011;46498;49.968;7.754;2023-12-04T17:20:42;50.47;;;20.83;;
28605;SDS011;46498;49.968;7.754;2023-12-04T17:25:42;56.25;;;22.25;;
28605;SDS011;46498;49.968;7.754;2023-12-04T17:30:43;53.67;;;21.40;;
28605;SDS011;46498;49.968;7.754;2023-12-04T17:35:44;41.42;;;19.37;;
28605;SDS011;46498;49.968;7.754;2023-12-04T17:40:46;42.65;;;18.55;;
28605;SDS011;46498;49.968;7.754;2023-12-04T17:45:46;32.55;;;16.08;;
28605;SDS011;46498;49.968;7.754;2023-12-04T17:50:48;35.50;;;16.25;;
28605;SDS011;46498;49.968;7.754;2023-12-04T17:55:49;32.65;;;16.02;;
28605;SDS011;46498;49.968;7.754;2023-12-04T18:00:50;31.35;;;15.00;;
28605;SDS011;46498;49.968;7.754;2023-12-04T18:05:51;35.60;;;17.48;;
28605;SDS011;46498;49.968;7.754;2023-12-04T18:10:52;30.15;;;15.25;;
28605;SDS011;46498;49.968;7.754;2023-12-04T18:15:53;38.55;;;17.73;;
28605;SDS011;46498;49.968;7.754;2023-12-04T18:20:55;41.83;;;18.80;;
28605;SDS011;46498;49.968;7.754;2023-12-04T18:25:56;41.60;;;19.40;;
28605;SDS011;46498;49.968;7.754;2023-12-04T18:30:58;43.83;;;19.77;;
28605;SDS011;46498;49.968;7.754;2023-12-04T18:36:01;57.17;;;23.27;;
28605;SDS011;46498;49.968;7.754;2023-12-04T18:41:04;52.70;;;22.67;;
28605;SDS011;46498;49.968;7.754;2023-12-04T18:46:06;46.85;;;20.48;;
28605;SDS011;46498;49.968;7.754;2023-12-04T18:51:09;35.57;;;16.17;;
28605;SDS011;46498;49.968;7.754;2023-12-04T18:56:10;46.70;;;20.08;;
28605;SDS011;46498;49.968;7.754;2023-12-04T19:01:11;49.17;;;19.67;;
28605;SDS011;46498;49.968;7.754;2023-12-04T19:06:12;46.72;;;19.92;;
28605;SDS011;46498;49.968;7.754;2023-12-04T19:11:13;52.75;;;21.87;;
28605;SDS011;46498;49.968;7.754;2023-12-04T19:16:14;55.17;;;22.50;;
28605;SDS011;46498;49.968;7.754;2023-12-04T19:21:15;49.25;;;21.87;;
28605;SDS011;46498;49.968;7.754;2023-12-04T19:26:16;60.22;;;25.30;;
28605;SDS011;46498;49.968;7.754;2023-12-04T19:31:17;63.40;;;24.55;;
28605;SDS011;46498;49.968;7.754;2023-12-04T19:36:18;62.35;;;25.17;;
28605;SDS011;46498;49.968;7.754;2023-12-04T19:41:27;62.95;;;25.30;;
28605;SDS011;46498;49.968;7.754;2023-12-04T19:46:30;60.60;;;25.27;;
28605;SDS011;46498;49.968;7.754;2023-12-04T19:51:31;56.97;;;24.25;;
28605;SDS011;46498;49.968;7.754;2023-12-04T19:56:32;55.30;;;24.40;;
28605;SDS011;46498;49.968;7.754;2023-12-04T20:01:32;71.87;;;25.62;;
28605;SDS011;46498;49.968;7.754;2023-12-04T20:06:33;57.78;;;24.73;;
28605;SDS011;46498;49.968;7.754;2023-12-04T20:11:35;56.40;;;25.15;;
28605;SDS011;46498;49.968;7.754;2023-12-04T20:16:36;52.92;;;24.33;;
28605;SDS011;46498;49.968;7.754;2023-12-04T20:21:36;56.67;;;24.10;;
28605;SDS011;46498;49.968;7.754;2023-12-04T20:26:37;63.78;;;25.37;;
28605;SDS011;46498;49.968;7.754;2023-12-04T20:31:38;55.17;;;24.00;;
28605;SDS011;46498;49.968;7.754;2023-12-04T20:36:39;56.70;;;23.42;;
28605;SDS011;46498;49.968;7.754;2023-12-04T20:41:40;53.03;;;23.33;;
28605;SDS011;46498;49.968;7.754;2023-12-04T20:46:41;56.35;;;24.35;;
28605;SDS011;46498;49.968;7.754;2023-12-04T20:51:42;52.60;;;22.60;;
28605;SDS011;46498;49.968;7.754;2023-12-04T20:56:44;50.97;;;22.75;;
28605;SDS011;46498;49.968;7.754;2023-12-04T21:01:47;50.12;;;23.27;;
28605;SDS011;46498;49.968;7.754;2023-12-04T21:06:49;52.97;;;23.20;;
28605;SDS011;46498;49.968;7.754;2023-12-04T21:11:50;52.85;;;23.90;;
28605;SDS011;46498;49.968;7.754;2023-12-04T21:16:51;77.87;;;26.20;;
28605;SDS011;46498;49.968;7.754;2023-12-04T21:22:01;58.65;;;25.33;;
28605;SDS011;46498;49.968;7.754;2023-12-04T21:27:02;66.40;;;26.67;;
28605;SDS011;46498;49.968;7.754;2023-12-04T21:32:04;80.57;;;29.08;;
28605;SDS011;46498;49.968;7.754;2023-12-04T21:37:06;61.60;;;27.48;;
28605;SDS011;46498;49.968;7.754;2023-12-04T21:42:07;91.82;;;30.25;;
28605;SDS011;46498;49.968;7.754;2023-12-04T21:47:08;71.40;;;28.02;;
28605;SDS011;46498;49.968;7.754;2023-12-04T21:52:09;67.45;;;29.35;;
28605;SDS011;46498;49.968;7.754;2023-12-04T21:57:10;60.88;;;26.33;;
28605;SDS011;46498;49.968;7.754;2023-12-04T22:02:11;63.05;;;27.65;;
28605;SDS011;46498;49.968;7.754;2023-12-04T22:07:12;87.07;;;30.77;;
28605;SDS011;46498;49.968;7.754;2023-12-04T22:12:13;87.57;;;30.15;;
28605;SDS011;46498;49.968;7.754;2023-12-04T22:17:14;201.10;;;34.65;;
28605;SDS011;46498;49.968;7.754;2023-12-04T22:22:15;318.50;;;39.67;;
28605;SDS011;46498;49.968;7.754;2023-12-04T22:27:16;92.85;;;31.08;;
28605;SDS011;46498;49.968;7.754;2023-12-04T22:32:17;77.32;;;30.20;;
28605;SDS011;46498;49.968;7.754;2023-12-04T22:37:18;103.32;;;29.08;;
28605;SDS011;46498;49.968;7.754;2023-12-04T22:42:20;79.30;;;29.30;;
28605;SDS011;46498;49.968;7.754;2023-12-04T22:47:20;69.22;;;28.35;;
28605;SDS011;46498;49.968;7.754;2023-12-04T22:52:21;128.50;;;30.77;;
28605;SDS011;46498;49.968;7.754;2023-12-04T22:57:22;72.45;;;27.92;;
28605;SDS011;46498;49.968;7.754;2023-12-04T23:02:23;68.60;;;27.67;;
28605;SDS011;46498;49.968;7.754;2023-12-04T23:07:25;75.35;;;27.40;;
28605;SDS011;46498;49.968;7.754;2023-12-04T23:12:26;86.85;;;28.10;;
28605;SDS011;46498;49.968;7.754;2023-12-04T23:17:26;67.50;;;27.10;;
28605;SDS011;46498;49.968;7.754;2023-12-04T23:22:27;100.93;;;27.52;;
28605;SDS011;46498;49.968;7.754;2023-12-04T23:27:28;176.63;;;34.58;;
28605;SDS011;46498;49.968;7.754;2023-12-04T23:32:38;213.70;;;34.42;;
28605;SDS011;46498;49.968;7.754;2023-12-04T23:37:39;301.45;;;36.50;;
28605;SDS011;46498;49.968;7.754;2023-12-04T23:42:40;200.32;;;35.63;;
28605;SDS011;46498;49.968;7.754;2023-12-04T23:47:41;209.37;;;33.40;;
28605;SDS011;46498;49.968;7.754;2023-12-04T23:52:42;389.95;;;43.83;;
28605;SDS011;46498;49.968;7.754;2023-12-04T23:57:43;439.83;;;52.03;;
